Time;durP1;ratioP1;P1;durP2;ratioP2;P2;SDS_P1;SDS_P2;PMS_P1;PMS_P2;Temp;Humidity;BMP_temperature;BMP_pressure;BME280_temperature;BME280_humidity;BME280_pressure;Samples;Min_cycle;Max_cycle;Signal;HPM_P1;HPM_P2
2023/07/12 00:00:20;;;;;;;3.10;2.38;;;21.90;99.90;;;;;;5034075;28;20182;-31
2023/07/12 00:02:48;;;;;;;4.05;2.20;;;21.80;99.90;;;;;;5055274;28;20182;-31
2023/07/12 00:05:15;;;;;;;2.70;1.83;;;21.80;99.90;;;;;;5028565;28;20209;-30
2023/07/12 00:07:40;;;;;;;3.75;2.50;;;21.70;99.90;;;;;;5040183;28;20234;-30
2023/07/12 00:10:28;;;;;;;3.83;2.00;;;21.70;99.90;;;;;;5022395;28;20206;-30
2023/07/12 00:12:54;;;;;;;2.45;2.20;;;21.60;99.90;;;;;;5029650;28;20275;-30
2023/07/12 00:15:23;;;;;;;3.05;2.28;;;21.60;99.90;;;;;;5030630;28;20233;-30
2023/07/12 00:17:53;;;;;;;2.45;2.20;;;21.70;99.90;;;;;;5044866;28;20205;-30
2023/07/12 00:20:31;;;;;;;5.25;2.30;;;21.80;99.90;;;;;;5034082;28;20174;-30
2023/07/12 00:22:58;;;;;;;4.15;1.95;;;21.70;99.90;;;;;;5026795;28;20178;-30
2023/07/12 00:25:27;;;;;;;7.63;2.10;;;21.80;99.90;;;;;;5036514;28;20182;-30
2023/07/12 00:27:53;;;;;;;4.28;2.10;;;21.80;99.90;;;;;;5041789;28;20206;-30
2023/07/12 00:30:27;;;;;;;4.50;2.38;;;21.80;99.90;;;;;;5042572;28;20174;-31
2023/07/12 00:32:55;;;;;;;3.85;2.10;;;21.80;99.90;;;;;;5015579;28;20194;-30
2023/07/12 00:35:24;;;;;;;2.33;1.83;;;21.80;99.90;;;;;;5032476;28;20228;-30
2023/07/12 00:37:52;;;;;;;4.28;2.10;;;21.80;99.90;;;;;;5038752;28;20288;-30
2023/07/12 00:40:37;;;;;;;5.82;2.28;;;21.90;99.90;;;;;;5015177;28;20212;-30
2023/07/12 00:43:35;;;;;;;3.72;2.63;;;21.90;99.90;;;;;;5039515;28;20185;-30
2023/07/12 00:46:09;;;;;;;3.75;2.38;;;21.90;99.90;;;;;;5001481;28;20194;-30
2023/07/12 00:48:35;;;;;;;2.80;2.20;;;21.90;99.90;;;;;;5042402;28;20233;-30
2023/07/12 00:51:21;;;;;;;3.17;2.25;;;21.90;99.90;;;;;;5033961;28;20213;-30
2023/07/12 00:53:47;;;;;;;2.75;2.22;;;21.90;99.90;;;;;;5037121;28;20182;-30
2023/07/12 00:56:13;;;;;;;5.20;2.45;;;21.90;99.90;;;;;;5041618;28;20201;-30
2023/07/12 00:58:46;;;;;;;4.53;2.55;;;21.90;99.90;;;;;;5033711;28;20288;-30
2023/07/12 01:01:14;;;;;;;5.68;2.25;;;21.80;99.90;;;;;;5033943;28;20278;-30
2023/07/12 01:03:42;;;;;;;4.25;2.42;;;21.80;99.90;;;;;;5050601;28;20182;-30
2023/07/12 01:06:11;;;;;;;4.22;2.33;;;21.70;99.90;;;;;;5027093;28;20225;-30
2023/07/12 01:08:42;;;;;;;3.08;2.28;;;21.70;99.90;;;;;;5023397;28;20198;-31
2023/07/12 01:11:12;;;;;;;4.40;2.28;;;21.50;99.90;;;;;;5020732;28;20178;-30
2023/07/12 01:13:42;;;;;;;4.63;2.50;;;21.40;99.90;;;;;;5032784;28;20184;-30
2023/07/12 01:16:09;;;;;;;5.82;2.40;;;21.50;99.90;;;;;;5027736;28;20671;-30
2023/07/12 01:18:34;;;;;;;7.25;2.58;;;21.50;99.90;;;;;;5014775;28;20190;-30
2023/07/12 01:21:12;;;;;;;4.18;2.33;;;21.50;99.90;;;;;;5025623;28;20649;-30
2023/07/12 01:23:39;;;;;;;4.53;2.17;;;21.60;99.90;;;;;;5042262;28;20188;-30
2023/07/12 01:26:29;;;;;;;7.97;2.50;;;21.60;99.90;;;;;;5031109;28;20217;-30
2023/07/12 01:28:58;;;;;;;4.72;2.58;;;21.60;99.90;;;;;;5046728;28;20213;-30
2023/07/12 01:31:25;;;;;;;5.55;2.38;;;21.60;99.90;;;;;;5022136;28;20212;-30
2023/07/12 01:33:52;;;;;;;4.70;2.40;;;21.50;99.90;;;;;;5024628;28;20293;-30
2023/07/12 01:36:18;;;;;;;4.55;2.50;;;21.40;99.90;;;;;;5048967;28;20181;-30
2023/07/12 01:38:46;;;;;;;6.38;2.70;;;21.30;99.90;;;;;;5030182;28;20205;-30
2023/07/12 01:41:13;;;;;;;6.93;2.70;;;21.30;99.90;;;;;;5017298;28;20186;-30
2023/07/12 01:43:39;;;;;;;7.70;2.78;;;21.30;99.90;;;;;;5028135;28;20309;-30
2023/07/12 01:46:06;;;;;;;5.22;2.75;;;21.30;99.90;;;;;;5029327;28;20185;-30
2023/07/12 01:48:32;;;;;;;8.55;3.00;;;21.30;99.90;;;;;;5031245;28;20594;-30
2023/07/12 01:50:59;;;;;;;6.15;3.10;;;21.20;99.90;;;;;;5025932;28;20178;-30
2023/07/12 01:53:26;;;;;;;5.13;2.80;;;21.30;99.90;;;;;;5024072;28;20264;-30
2023/07/12 01:55:52;;;;;;;5.50;2.85;;;21.40;99.90;;;;;;5032702;28;20214;-30
2023/07/12 01:58:18;;;;;;;6.72;2.90;;;21.40;99.90;;;;;;5046902;28;20201;-30
2023/07/12 02:00:44;;;;;;;4.72;2.70;;;21.50;99.90;;;;;;5026776;28;20181;-30
2023/07/12 02:03:09;;;;;;;4.78;2.65;;;21.50;99.90;;;;;;5039941;28;20293;-30
2023/07/12 02:05:35;;;;;;;4.20;2.80;;;21.60;99.90;;;;;;5040882;28;20247;-30
2023/07/12 02:08:01;;;;;;;7.00;3.00;;;21.60;99.90;;;;;;5023789;28;20229;-30
2023/07/12 02:10:28;;;;;;;4.70;2.50;;;21.60;99.90;;;;;;5036640;28;20174;-30
2023/07/12 02:12:54;;;;;;;4.72;2.58;;;21.50;99.90;;;;;;5046031;28;20185;-31
2023/07/12 02:15:22;;;;;;;6.53;2.90;;;21.40;99.90;;;;;;5028918;28;20205;-30
2023/07/12 02:17:48;;;;;;;4.45;2.67;;;21.40;99.90;;;;;;5043634;28;20205;-30
2023/07/12 02:20:14;;;;;;;6.05;2.70;;;21.30;99.90;;;;;;5037197;28;20171;-30
2023/07/12 02:22:44;;;;;;;4.45;2.80;;;21.30;99.90;;;;;;5045815;28;20196;-30
2023/07/12 02:25:14;;;;;;;4.18;2.63;;;21.30;99.90;;;;;;5035993;28;20289;-30
2023/07/12 02:27:41;;;;;;;4.18;2.70;;;21.20;99.90;;;;;;5042458;28;20209;-30
2023/07/12 02:30:16;;;;;;;5.20;2.53;;;21.20;99.90;;;;;;5039230;28;20645;-30
2023/07/12 02:32:43;;;;;;;5.45;2.80;;;21.20;99.90;;;;;;5032432;28;20194;-30
2023/07/12 02:35:11;;;;;;;4.45;2.70;;;21.20;99.90;;;;;;5043545;28;20202;-31
2023/07/12 02:37:37;;;;;;;4.15;2.47;;;21.10;99.90;;;;;;5048941;28;20202;-30
2023/07/12 02:40:08;;;;;;;7.38;3.20;;;21.00;99.90;;;;;;5032132;28;20187;-30
2023/07/12 02:42:34;;;;;;;7.22;2.92;;;21.00;99.90;;;;;;5031180;28;20175;-29
2023/07/12 02:45:00;;;;;;;7.60;3.22;;;20.80;99.90;;;;;;5048501;28;20186;-30
2023/07/12 02:47:26;;;;;;;5.72;3.30;;;20.80;99.90;;;;;;5044963;28;20316;-30
2023/07/12 02:49:52;;;;;;;5.65;2.78;;;20.80;99.90;;;;;;5042917;28;20191;-30
2023/07/12 02:52:18;;;;;;;4.72;2.78;;;20.80;99.90;;;;;;5033631;28;20186;-30
2023/07/12 02:54:44;;;;;;;5.50;3.08;;;20.80;99.90;;;;;;5033053;28;20233;-30
2023/07/12 02:57:12;;;;;;;6.15;3.00;;;20.80;99.90;;;;;;5042375;28;20213;-30
2023/07/12 02:59:38;;;;;;;6.28;3.03;;;20.70;99.90;;;;;;5030563;28;20214;-30
2023/07/12 03:02:12;;;;;;;3.88;3.00;;;20.80;99.90;;;;;;5044978;28;20233;-30
2023/07/12 03:04:38;;;;;;;4.93;3.25;;;20.80;99.90;;;;;;5043735;28;20182;-31
2023/07/12 03:07:04;;;;;;;6.75;3.22;;;20.90;99.90;;;;;;5044094;28;20231;-30
2023/07/12 03:09:30;;;;;;;8.23;3.03;;;20.80;99.90;;;;;;5035264;28;20229;-30
2023/07/12 03:11:56;;;;;;;6.28;2.92;;;20.90;99.90;;;;;;5040324;28;20206;-30
2023/07/12 03:14:23;;;;;;;7.57;2.60;;;20.90;99.90;;;;;;5052291;28;20317;-30
2023/07/12 03:16:49;;;;;;;7.90;3.30;;;21.00;99.90;;;;;;5041258;28;20187;-30
2023/07/12 03:19:16;;;;;;;5.63;3.08;;;21.00;99.90;;;;;;5047331;28;20226;-30
2023/07/12 03:21:43;;;;;;;5.25;3.05;;;21.00;99.90;;;;;;5016742;28;20270;-30
2023/07/12 03:24:09;;;;;;;5.82;3.00;;;21.10;99.90;;;;;;5033424;28;20210;-30
2023/07/12 03:26:36;;;;;;;7.03;3.47;;;21.00;99.90;;;;;;5040854;28;20211;-30
2023/07/12 03:29:03;;;;;;;11.30;3.75;;;21.00;99.90;;;;;;5031702;28;20296;-30
2023/07/12 03:31:29;;;;;;;5.43;3.05;;;21.00;99.90;;;;;;5043231;28;20173;-30
2023/07/12 03:33:55;;;;;;;9.77;3.05;;;20.90;99.90;;;;;;5032244;28;20189;-30
2023/07/12 03:36:24;;;;;;;5.88;2.90;;;21.00;99.90;;;;;;5030261;28;20180;-30
2023/07/12 03:38:51;;;;;;;5.50;2.90;;;21.00;99.90;;;;;;5042200;28;20198;-30
2023/07/12 03:41:20;;;;;;;6.55;3.13;;;20.90;99.90;;;;;;5048624;28;20240;-30
2023/07/12 03:43:46;;;;;;;7.13;3.22;;;20.90;99.90;;;;;;5029506;28;20262;-30
2023/07/12 03:46:13;;;;;;;8.02;3.55;;;20.90;99.90;;;;;;5047940;28;20213;-30
2023/07/12 03:48:39;;;;;;;8.55;3.20;;;20.90;99.90;;;;;;5050354;28;20240;-30
2023/07/12 03:51:05;;;;;;;11.57;3.28;;;20.90;99.90;;;;;;5028351;28;20210;-30
2023/07/12 03:53:31;;;;;;;5.38;3.08;;;20.80;99.90;;;;;;5022971;28;20270;-30
2023/07/12 03:55:59;;;;;;;8.10;3.15;;;20.80;99.90;;;;;;5038099;28;20337;-30
2023/07/12 03:58:28;;;;;;;8.05;3.40;;;20.80;99.90;;;;;;5048198;28;20199;-30
2023/07/12 04:00:54;;;;;;;7.25;3.47;;;20.90;99.90;;;;;;5045189;28;20185;-29
2023/07/12 04:03:20;;;;;;;6.35;3.53;;;20.80;99.90;;;;;;5024303;28;20178;-29
2023/07/12 04:05:51;;;;;;;6.18;3.13;;;20.70;99.90;;;;;;5032738;28;20217;-30
2023/07/12 04:08:18;;;;;;;5.72;3.45;;;20.80;99.90;;;;;;5021898;28;20257;-30
2023/07/12 04:10:44;;;;;;;8.38;3.95;;;20.80;99.90;;;;;;5036879;28;20185;-30
2023/07/12 04:13:10;;;;;;;5.78;3.35;;;20.70;99.90;;;;;;5031759;28;20193;-30
2023/07/12 04:15:36;;;;;;;7.10;3.35;;;20.70;99.90;;;;;;5030086;28;20209;-30
2023/07/12 04:18:03;;;;;;;8.18;3.22;;;20.70;99.90;;;;;;5047089;28;20194;-30
2023/07/12 04:20:30;;;;;;;5.95;3.10;;;20.70;99.90;;;;;;5048639;28;20204;-29
2023/07/12 04:22:56;;;;;;;7.80;3.13;;;20.70;99.90;;;;;;5019037;28;20190;-30
2023/07/12 04:25:22;;;;;;;6.07;3.50;;;20.70;99.90;;;;;;5032254;28;20193;-30
2023/07/12 04:27:47;;;;;;;8.70;3.30;;;20.70;99.90;;;;;;5045294;28;20206;-30
2023/07/12 04:30:15;;;;;;;7.40;3.50;;;20.80;99.90;;;;;;5022560;28;20184;-29
2023/07/12 04:32:42;;;;;;;8.65;3.50;;;20.80;99.90;;;;;;5033015;28;20178;-30
2023/07/12 04:35:10;;;;;;;8.70;3.55;;;20.90;99.90;;;;;;5017318;28;20207;-30
2023/07/12 04:37:36;;;;;;;8.43;3.83;;;20.90;99.90;;;;;;5034123;28;20672;-30
2023/07/12 04:40:02;;;;;;;7.70;3.20;;;21.00;99.90;;;;;;5040419;28;20175;-31
2023/07/12 04:42:28;;;;;;;13.05;3.92;;;21.10;99.90;;;;;;5028261;28;20182;-30
2023/07/12 04:44:54;;;;;;;9.48;3.78;;;21.10;99.90;;;;;;5032747;28;20259;-30
2023/07/12 04:47:19;;;;;;;12.45;4.28;;;21.10;99.90;;;;;;5030477;28;20185;-30
2023/07/12 04:49:45;;;;;;;8.02;3.47;;;21.20;99.90;;;;;;5050928;28;20200;-30
2023/07/12 04:52:12;;;;;;;9.50;3.63;;;21.20;99.90;;;;;;5037709;28;20188;-30
2023/07/12 04:54:42;;;;;;;9.15;3.67;;;21.30;99.90;;;;;;5034022;28;20202;-30
2023/07/12 04:57:09;;;;;;;13.35;3.75;;;21.30;99.90;;;;;;5036901;28;20180;-30
2023/07/12 04:59:36;;;;;;;9.43;3.65;;;21.30;99.90;;;;;;5027179;28;20182;-30
2023/07/12 05:02:04;;;;;;;6.18;3.20;;;21.30;99.90;;;;;;5041754;28;20178;-31
2023/07/12 05:04:31;;;;;;;7.22;3.65;;;21.30;99.90;;;;;;5044542;28;20182;-31
2023/07/12 05:06:57;;;;;;;11.23;4.00;;;21.40;99.90;;;;;;5024555;28;20183;-30
2023/07/12 05:09:23;;;;;;;8.75;3.58;;;21.40;99.90;;;;;;5043881;28;20206;-30
2023/07/12 05:11:50;;;;;;;7.05;3.28;;;21.40;99.90;;;;;;5042642;28;20228;-31
2023/07/12 05:14:16;;;;;;;10.70;3.53;;;21.40;99.90;;;;;;5017476;28;20214;-30
2023/07/12 05:16:42;;;;;;;9.63;4.05;;;21.40;99.90;;;;;;5020138;28;20178;-30
2023/07/12 05:19:08;;;;;;;7.90;3.75;;;21.40;99.90;;;;;;5042225;28;20209;-31
2023/07/12 05:21:34;;;;;;;10.85;3.90;;;21.30;99.90;;;;;;5033367;28;20174;-30
2023/07/12 05:24:00;;;;;;;8.38;3.72;;;21.30;99.90;;;;;;5025710;28;20327;-30
2023/07/12 05:26:26;;;;;;;13.15;4.18;;;21.30;99.90;;;;;;5041479;28;20181;-30
2023/07/12 05:28:52;;;;;;;11.88;4.20;;;21.40;99.90;;;;;;5025454;28;20206;-30
2023/07/12 05:31:18;;;;;;;9.60;3.70;;;21.50;99.90;;;;;;5033317;28;20174;-31
2023/07/12 05:33:46;;;;;;;9.23;4.13;;;21.50;99.90;;;;;;5049437;28;20190;-30
2023/07/12 05:36:14;;;;;;;8.80;4.07;;;21.60;99.90;;;;;;5049613;28;20209;-30
2023/07/12 05:38:39;;;;;;;8.00;4.00;;;21.60;99.90;;;;;;5033158;28;20204;-30
2023/07/12 05:41:05;;;;;;;8.77;4.30;;;21.60;99.90;;;;;;5049625;28;20216;-30
2023/07/12 05:43:33;;;;;;;8.45;4.22;;;21.60;99.90;;;;;;5033052;28;20175;-31
2023/07/12 05:46:00;;;;;;;8.23;4.25;;;21.60;99.90;;;;;;5024840;28;20178;-31
2023/07/12 05:48:26;;;;;;;10.68;4.40;;;21.60;99.90;;;;;;5038635;28;20197;-31
2023/07/12 05:50:57;;;;;;;10.30;4.03;;;21.60;99.90;;;;;;5025786;28;20182;-30
2023/07/12 05:53:24;;;;;;;10.77;4.22;;;21.60;99.90;;;;;;5022866;28;20186;-30
2023/07/12 05:56:00;;;;;;;7.47;4.15;;;21.70;99.90;;;;;;5041043;28;20216;-31
2023/07/12 05:58:28;;;;;;;9.70;4.40;;;21.80;99.90;;;;;;5049020;28;20189;-30
2023/07/12 06:00:59;;;;;;;9.65;4.63;;;21.80;99.90;;;;;;5041742;28;20186;-30
2023/07/12 06:03:26;;;;;;;12.68;4.72;;;21.90;99.90;;;;;;5049017;28;20312;-30
2023/07/12 06:05:52;;;;;;;11.68;5.43;;;21.80;99.90;;;;;;5015011;28;20191;-30
2023/07/12 06:08:20;;;;;;;12.35;5.30;;;21.80;99.90;;;;;;5024083;28;20202;-30
2023/07/12 06:10:47;;;;;;;6.78;5.18;;;21.80;99.90;;;;;;5015829;28;20195;-31
2023/07/12 06:13:13;;;;;;;12.23;4.90;;;21.70;99.90;;;;;;5033267;28;20656;-31
2023/07/12 06:15:39;;;;;;;12.57;5.45;;;21.80;99.90;;;;;;5007044;28;20210;-30
2023/07/12 06:18:06;;;;;;;12.15;6.50;;;21.80;99.90;;;;;;5039048;28;20251;-31
2023/07/12 06:20:32;;;;;;;10.32;6.53;;;21.90;99.90;;;;;;5018037;28;20174;-30
2023/07/12 06:22:58;;;;;;;12.15;6.70;;;21.90;99.90;;;;;;5017198;28;20269;-30
2023/07/12 06:25:24;;;;;;;13.07;7.13;;;22.00;99.90;;;;;;5031783;28;20277;-31
2023/07/12 06:27:50;;;;;;;13.15;6.82;;;22.10;99.90;;;;;;5012694;28;20234;-32
2023/07/12 06:30:17;;;;;;;9.75;6.68;;;22.20;99.90;;;;;;5013478;28;20264;-32
2023/07/12 06:32:43;;;;;;;10.40;5.28;;;22.40;99.90;;;;;;5012619;28;20194;-32
2023/07/12 06:35:09;;;;;;;11.68;6.50;;;22.50;99.90;;;;;;5021622;28;20240;-32
2023/07/12 06:37:34;;;;;;;9.95;5.80;;;22.60;99.90;;;;;;5012786;28;20288;-31
2023/07/12 06:40:00;;;;;;;8.65;5.68;;;22.60;99.90;;;;;;5013467;28;20209;-32
2023/07/12 06:42:26;;;;;;;8.77;5.50;;;22.70;99.90;;;;;;5032144;28;20179;-32
2023/07/12 06:44:52;;;;;;;10.43;5.35;;;22.70;99.90;;;;;;5018040;28;20187;-31
2023/07/12 06:47:18;;;;;;;8.75;5.78;;;22.80;99.90;;;;;;5028930;28;20634;-30
2023/07/12 06:49:44;;;;;;;8.95;5.60;;;22.90;99.90;;;;;;5029432;28;20186;-31
2023/07/12 06:52:10;;;;;;;9.85;5.75;;;23.00;99.90;;;;;;5015213;28;20210;-31
2023/07/12 06:54:38;;;;;;;10.43;6.53;;;23.20;99.90;;;;;;5035703;28;20240;-31
2023/07/12 06:57:05;;;;;;;8.07;5.65;;;23.30;99.90;;;;;;5031876;28;20261;-31
2023/07/12 06:59:32;;;;;;;7.10;5.53;;;23.30;99.90;;;;;;5028601;28;20198;-32
2023/07/12 07:01:59;;;;;;;9.30;5.60;;;23.30;99.90;;;;;;5034446;28;20171;-31
2023/07/12 07:04:28;;;;;;;8.05;5.50;;;23.20;99.90;;;;;;5022903;28;20183;-32
2023/07/12 07:06:53;;;;;;;8.57;5.07;;;23.20;99.90;;;;;;5032966;28;20209;-32
2023/07/12 07:09:20;;;;;;;8.43;5.60;;;23.20;99.90;;;;;;5027104;28;20233;-31
2023/07/12 07:11:45;;;;;;;7.00;5.15;;;23.30;99.90;;;;;;5029390;28;20179;-32
2023/07/12 07:14:11;;;;;;;6.55;5.50;;;23.40;99.90;;;;;;5012119;28;20222;-29
2023/07/12 07:16:37;;;;;;;9.35;5.25;;;23.40;99.90;;;;;;5018486;28;20214;-32
2023/07/12 07:19:03;;;;;;;7.97;5.15;;;23.50;99.90;;;;;;5012256;28;20239;-32
2023/07/12 07:21:29;;;;;;;8.00;5.35;;;23.60;99.90;;;;;;5029188;28;20193;-32
2023/07/12 07:23:55;;;;;;;8.45;5.95;;;23.60;99.90;;;;;;5015883;28;20186;-31
2023/07/12 07:26:20;;;;;;;8.18;5.72;;;23.80;99.90;;;;;;5029984;28;20265;-31
2023/07/12 07:28:46;;;;;;;8.82;5.50;;;23.80;99.90;;;;;;5015731;28;20716;-32
2023/07/12 07:31:12;;;;;;;7.35;5.10;;;23.90;99.90;;;;;;5031744;28;20232;-32
2023/07/12 07:33:39;;;;;;;6.82;5.43;;;24.00;99.90;;;;;;5032443;28;20205;-32
2023/07/12 07:36:11;;;;;;;6.57;5.75;;;24.10;99.90;;;;;;5021245;28;20301;-29
2023/07/12 07:38:37;;;;;;;8.27;6.20;;;24.20;99.90;;;;;;5022828;28;20210;-30
2023/07/12 07:41:11;;;;;;;9.20;5.70;;;24.20;99.90;;;;;;5021036;28;20255;-30
2023/07/12 07:43:39;;;;;;;8.95;5.28;;;24.30;99.90;;;;;;5008867;28;20182;-30
2023/07/12 07:46:09;;;;;;;7.20;5.38;;;24.40;99.90;;;;;;5020680;28;20197;-31
2023/07/12 07:48:34;;;;;;;7.90;5.47;;;24.50;99.90;;;;;;5015547;28;20202;-30
2023/07/12 07:51:01;;;;;;;9.90;5.63;;;24.60;99.90;;;;;;5015535;28;20198;-30
2023/07/12 07:53:26;;;;;;;6.75;4.93;;;24.80;99.90;;;;;;5019241;28;20186;-30
2023/07/12 07:55:52;;;;;;;8.13;5.32;;;24.90;99.90;;;;;;5037116;28;20214;-30
2023/07/12 07:58:20;;;;;;;6.72;5.10;;;24.90;99.90;;;;;;5015219;28;20204;-30
2023/07/12 08:00:46;;;;;;;7.20;5.00;;;25.00;99.90;;;;;;5018811;28;20187;-30
2023/07/12 08:03:12;;;;;;;6.72;4.47;;;25.10;99.90;;;;;;5021897;28;20329;-31
2023/07/12 08:05:38;;;;;;;6.75;4.53;;;25.10;99.90;;;;;;5019590;28;20186;-31
2023/07/12 08:08:04;;;;;;;7.65;4.40;;;25.30;99.90;;;;;;5031826;28;20214;-30
2023/07/12 08:10:32;;;;;;;7.75;4.95;;;25.40;99.90;;;;;;5019228;28;20270;-30
2023/07/12 08:12:58;;;;;;;6.47;4.70;;;25.50;99.90;;;;;;5014934;28;20193;-31
2023/07/12 08:15:25;;;;;;;5.35;4.20;;;25.40;99.90;;;;;;5016813;28;20210;-30
2023/07/12 08:17:51;;;;;;;6.13;4.28;;;25.50;99.90;;;;;;5041670;28;20221;-30
2023/07/12 08:20:17;;;;;;;4.82;4.18;;;25.70;99.90;;;;;;5017436;28;20182;-30
2023/07/12 08:22:43;;;;;;;5.53;4.20;;;25.90;99.90;;;;;;5027096;28;20232;-31
2023/07/12 08:25:09;;;;;;;4.97;4.28;;;26.00;99.90;;;;;;5029868;28;20179;-31
2023/07/12 08:27:35;;;;;;;5.68;4.28;;;26.00;99.90;;;;;;5031094;28;20202;-31
2023/07/12 08:30:02;;;;;;;7.18;4.28;;;26.00;99.90;;;;;;5030010;28;20179;-32
2023/07/12 08:32:30;;;;;;;6.72;4.40;;;26.00;99.90;;;;;;5045658;28;20230;-30
2023/07/12 08:34:57;;;;;;;9.55;4.28;;;26.20;99.90;;;;;;5011845;28;20215;-32
2023/07/12 08:37:24;;;;;;;6.05;4.43;;;26.20;99.90;;;;;;5027859;28;20174;-31
2023/07/12 08:39:50;;;;;;;4.30;3.85;;;25.90;99.90;;;;;;5014318;28;20181;-31
2023/07/12 08:42:25;;;;;;;6.53;3.95;;;25.70;99.90;;;;;;5030793;28;20186;-30
2023/07/12 08:44:52;;;;;;;5.95;3.83;;;25.70;99.90;;;;;;5028068;28;20218;-30
2023/07/12 08:47:28;;;;;;;8.15;4.30;;;26.00;99.90;;;;;;5029766;28;20221;-30
2023/07/12 08:49:54;;;;;;;4.45;3.83;;;26.10;99.90;;;;;;5014428;28;20197;-31
2023/07/12 08:52:23;;;;;;;7.45;4.25;;;26.30;99.90;;;;;;5030387;28;20191;-30
2023/07/12 08:54:50;;;;;;;5.40;3.60;;;26.40;99.90;;;;;;5038834;28;20206;-30
2023/07/12 08:57:21;;;;;;;4.70;3.78;;;26.30;99.90;;;;;;5030470;28;20269;-30
2023/07/12 09:00:05;;;;;;;5.10;3.40;;;26.20;99.90;;;;;;5014735;28;20187;-30
2023/07/12 09:02:31;;;;;;;7.80;3.67;;;26.10;99.90;;;;;;5034276;28;20236;-31
2023/07/12 09:04:59;;;;;;;5.43;3.70;;;26.10;99.90;;;;;;5043072;28;20248;-32
2023/07/12 09:07:31;;;;;;;6.15;4.43;;;26.40;99.90;;;;;;5032927;28;20226;-30
2023/07/12 09:09:59;;;;;;;5.68;4.05;;;26.70;99.90;;;;;;5050864;28;20204;-31
2023/07/12 09:12:32;;;;;;;5.07;4.20;;;26.80;99.90;;;;;;5025249;28;20217;-31
2023/07/12 09:15:10;;;;;;;5.85;4.35;;;26.90;99.90;;;;;;5025868;28;20259;-30
2023/07/12 09:17:44;;;;;;;5.32;3.88;;;27.00;99.90;;;;;;5030359;28;20231;-31
2023/07/12 09:20:25;;;;;;;6.82;3.75;;;27.10;99.90;;;;;;5030304;28;20175;-30
2023/07/12 09:22:56;;;;;;;6.13;4.40;;;27.40;99.90;;;;;;5037725;28;20178;-30
2023/07/12 09:25:26;;;;;;;4.38;3.97;;;27.60;99.90;;;;;;5040009;28;20185;-31
2023/07/12 09:27:52;;;;;;;7.07;4.63;;;27.60;99.90;;;;;;5043955;28;20236;-31
2023/07/12 09:30:25;;;;;;;4.90;4.05;;;27.70;99.90;;;;;;5044877;28;20210;-31
2023/07/12 09:32:54;;;;;;;5.68;4.10;;;27.60;99.90;;;;;;5017045;28;20226;-31
2023/07/12 09:35:32;;;;;;;6.50;4.03;;;27.80;99.90;;;;;;5040234;28;20209;-30
2023/07/12 09:38:06;;;;;;;4.03;3.58;;;27.80;99.90;;;;;;5044678;28;20198;-32
2023/07/12 09:40:40;;;;;;;6.03;3.40;;;28.00;99.90;;;;;;5030661;28;20201;-31
2023/07/12 09:43:16;;;;;;;4.40;3.38;;;28.00;99.90;;;;;;5045820;28;20189;-31
2023/07/12 09:46:08;;;;;;;3.88;3.13;;;28.10;99.90;;;;;;5029738;28;20216;-30
2023/07/12 09:48:58;;;;;;;5.50;3.50;;;28.10;99.90;;;;;;5019373;28;20209;-31
2023/07/12 09:51:44;;;;;;;6.22;3.80;;;28.20;99.90;;;;;;5033214;28;20187;-31
2023/07/12 09:54:28;;;;;;;4.28;2.95;;;28.40;99.90;;;;;;5021795;28;20197;-31
2023/07/12 09:56:59;;;;;;;6.38;3.03;;;28.30;99.90;;;;;;5034460;28;20188;-32
2023/07/12 09:59:31;;;;;;;5.75;3.28;;;28.10;99.90;;;;;;5041731;28;20198;-31
2023/07/12 10:02:18;;;;;;;6.57;3.25;;;28.10;99.90;;;;;;5026092;28;20179;-30
2023/07/12 10:04:52;;;;;;;4.50;3.00;;;28.10;99.90;;;;;;5025998;28;20265;-30
2023/07/12 10:07:31;;;;;;;3.67;3.05;;;28.10;99.90;;;;;;5031378;28;20178;-30
2023/07/12 10:09:56;;;;;;;5.43;3.33;;;28.10;99.90;;;;;;5026766;28;20189;-30
2023/07/12 10:12:43;;;;;;;4.72;3.08;;;28.00;99.90;;;;;;5031416;28;20194;-30
2023/07/12 10:15:13;;;;;;;5.30;3.60;;;28.20;99.90;;;;;;5032946;28;20288;-30
2023/07/12 10:17:43;;;;;;;4.07;3.17;;;28.40;99.90;;;;;;5028489;28;20218;-30
2023/07/12 10:20:23;;;;;;;6.03;2.92;;;28.30;99.90;;;;;;5029262;28;20280;-30
2023/07/12 10:22:50;;;;;;;5.93;2.85;;;28.40;99.90;;;;;;5021107;28;20191;-29
2023/07/12 10:25:24;;;;;;;3.70;2.45;;;28.30;99.90;;;;;;5027515;28;20191;-31
2023/07/12 10:28:14;;;;;;;5.20;3.00;;;28.10;99.90;;;;;;5038710;28;20226;-30
2023/07/12 10:30:41;;;;;;;4.93;2.50;;;27.80;99.90;;;;;;5009239;28;20191;-30
2023/07/12 10:33:32;;;;;;;5.10;3.08;;;28.00;99.90;;;;;;5035334;28;20194;-31
2023/07/12 10:36:24;;;;;;;6.18;3.03;;;28.10;99.90;;;;;;5021084;28;20293;-30
2023/07/12 10:38:51;;;;;;;5.75;3.10;;;28.20;99.90;;;;;;5025062;28;20297;-30
2023/07/12 10:41:27;;;;;;;7.30;3.38;;;28.40;99.90;;;;;;5029541;28;20265;-30
2023/07/12 10:44:08;;;;;;;5.60;3.63;;;28.60;99.90;;;;;;5028598;28;20277;-30
2023/07/12 10:46:37;;;;;;;4.78;2.88;;;28.60;99.90;;;;;;5026225;28;20201;-31
2023/07/12 10:49:14;;;;;;;3.47;3.05;;;28.60;99.90;;;;;;5024000;28;20233;-30
2023/07/12 10:52:01;;;;;;;6.65;3.65;;;28.60;99.90;;;;;;5014322;28;20190;-30
2023/07/12 10:54:30;;;;;;;4.35;3.40;;;28.60;99.90;;;;;;5010695;28;20211;-31
2023/07/12 10:57:06;;;;;;;4.72;3.42;;;28.80;99.90;;;;;;5031075;28;20167;-31
2023/07/12 10:59:32;;;;;;;7.00;3.65;;;29.00;99.90;;;;;;5034351;28;20201;-31
2023/07/12 11:02:28;;;;;;;6.70;4.05;;;29.20;99.90;;;;;;5042658;28;20185;-30
2023/07/12 11:04:54;;;;;;;5.13;3.65;;;29.40;99.90;;;;;;5030456;28;20182;-30
2023/07/12 11:07:19;;;;;;;5.13;3.90;;;29.40;99.90;;;;;;5037159;28;20277;-30
2023/07/12 11:09:45;;;;;;;6.43;3.83;;;29.50;99.90;;;;;;5031806;28;20321;-31
2023/07/12 11:12:30;;;;;;;4.85;4.03;;;29.50;99.90;;;;;;5033090;28;20213;-32
2023/07/12 11:15:11;;;;;;;3.85;3.55;;;29.50;99.90;;;;;;5037399;28;20214;-30
2023/07/12 11:17:51;;;;;;;10.52;4.68;;;29.50;99.90;;;;;;5034108;28;20206;-31
2023/07/12 11:20:29;;;;;;;5.00;3.95;;;29.40;99.90;;;;;;5036730;28;20186;-31
2023/07/12 11:23:20;;;;;;;5.15;4.22;;;29.50;99.90;;;;;;5042856;28;20186;-30
2023/07/12 11:25:49;;;;;;;5.35;4.47;;;29.80;99.90;;;;;;5027218;28;20213;-30
2023/07/12 11:28:47;;;;;;;5.85;4.68;;;30.00;99.90;;;;;;5022425;28;20194;-31
2023/07/12 11:31:26;;;;;;;6.65;4.43;;;30.20;99.90;;;;;;5029920;28;20186;-31
2023/07/12 11:34:16;;;;;;;7.97;4.20;;;30.20;99.90;;;;;;5040548;28;20281;-31
2023/07/12 11:36:48;;;;;;;6.65;4.60;;;30.30;99.90;;;;;;5026856;28;20183;-31
2023/07/12 11:39:18;;;;;;;6.82;4.60;;;30.30;99.90;;;;;;5042624;28;20223;-31
2023/07/12 11:42:08;;;;;;;4.95;4.28;;;30.50;99.90;;;;;;5037116;28;20190;-31
2023/07/12 11:44:34;;;;;;;6.93;4.40;;;30.60;99.90;;;;;;5042600;28;20186;-31
2023/07/12 11:47:02;;;;;;;4.68;3.90;;;30.70;99.90;;;;;;5025129;28;20178;-29
2023/07/12 11:49:30;;;;;;;5.78;4.50;;;30.90;99.90;;;;;;5021274;28;20333;-32
2023/07/12 11:52:10;;;;;;;7.30;4.50;;;31.00;99.90;;;;;;5024903;28;20276;-31
2023/07/12 11:54:40;;;;;;;5.90;5.10;;;31.10;99.90;;;;;;5059799;28;20244;-32
2023/07/12 11:57:11;;;;;;;10.25;5.20;;;31.30;99.90;;;;;;5026300;28;20174;-31
2023/07/12 11:59:39;;;;;;;7.45;4.70;;;31.30;99.90;;;;;;5022287;28;20186;-31
2023/07/12 12:02:12;;;;;;;7.88;4.93;;;31.10;99.90;;;;;;5024629;28;20209;-30
2023/07/12 12:04:38;;;;;;;6.80;4.63;;;30.80;99.90;;;;;;5038967;28;20189;-31
2023/07/12 12:07:16;;;;;;;5.13;4.60;;;30.90;99.90;;;;;;5024742;28;20236;-31
2023/07/12 12:09:43;;;;;;;6.20;4.38;;;30.40;99.90;;;;;;5041602;28;20193;-31
2023/07/12 12:12:21;;;;;;;7.45;4.82;;;30.40;99.90;;;;;;5040193;28;20209;-30
2023/07/12 12:14:49;;;;;;;8.50;4.90;;;30.50;99.90;;;;;;5042601;28;20205;-31
2023/07/12 12:17:22;;;;;;;5.68;5.18;;;30.80;99.90;;;;;;5023091;28;20217;-31
2023/07/12 12:19:50;;;;;;;7.50;4.75;;;30.90;99.90;;;;;;5036880;28;20181;-30
2023/07/12 12:22:24;;;;;;;4.78;4.25;;;31.00;99.90;;;;;;5022671;28;20175;-31
2023/07/12 12:24:55;;;;;;;5.75;4.40;;;30.70;99.90;;;;;;5054457;28;20186;-32
2023/07/12 12:27:27;;;;;;;7.97;4.35;;;30.70;99.90;;;;;;5053601;28;20186;-30
2023/07/12 12:29:53;;;;;;;5.60;4.75;;;30.90;99.90;;;;;;5023664;28;20209;-30
2023/07/12 12:32:21;;;;;;;6.25;4.50;;;30.80;99.90;;;;;;5038338;28;20280;-31
2023/07/12 12:34:54;;;;;;;5.72;4.95;;;30.60;99.90;;;;;;5034776;28;20241;-30
2023/07/12 12:37:28;;;;;;;5.72;4.75;;;30.30;99.90;;;;;;5030755;28;20174;-31
2023/07/12 12:40:10;;;;;;;5.93;4.20;;;30.40;99.90;;;;;;5024492;28;20183;-30
2023/07/12 12:43:01;;;;;;;6.30;4.00;;;30.60;99.90;;;;;;5021701;28;20179;-31
2023/07/12 12:45:32;;;;;;;5.40;4.00;;;30.70;99.90;;;;;;5036028;28;20182;-31
2023/07/12 12:47:59;;;;;;;9.45;4.53;;;30.50;99.90;;;;;;5035754;28;20230;-31
2023/07/12 12:50:26;;;;;;;5.22;4.15;;;30.30;99.90;;;;;;5030209;28;20187;-31
2023/07/12 12:53:00;;;;;;;6.10;4.32;;;30.30;99.90;;;;;;5021052;28;20187;-31
2023/07/12 12:55:26;;;;;;;5.65;4.70;;;30.40;99.90;;;;;;5010337;28;20210;-31
2023/07/12 12:57:52;;;;;;;5.82;4.20;;;30.60;99.90;;;;;;5026996;28;20209;-31